Time;durP1;ratioP1;P1;durP2;ratioP2;P2;SDS_P1;SDS_P2;PMS_P1;PMS_P2;Temp;Humidity;BMP_temperature;BMP_pressure;BME280_temperature;BME280_humidity;BME280_pressure;Samples;Min_cycle;Max_cycle;Signal;HPM_P1;HPM_P2
2021/12/25 00:01:50;;;;;;;111.28;38.90;;;;;;;5.81;100.00;100398.06;5181336;28;20045;-75
2021/12/25 00:04:21;;;;;;;101.20;37.17;;;;;;;5.81;100.00;100398.06;5181087;28;20018;-74
2021/12/25 00:06:51;;;;;;;112.28;39.55;;;;;;;5.80;100.00;100399.03;5181261;28;20083;-75
2021/12/25 00:09:22;;;;;;;94.85;35.25;;;;;;;5.80;100.00;100388.38;5181673;28;20112;-75
2021/12/25 00:11:53;;;;;;;108.03;39.30;;;;;;;5.79;100.00;100389.38;5179786;28;20037;-75
2021/12/25 00:14:23;;;;;;;106.43;35.85;;;;;;;5.78;100.00;100387.72;5180454;28;20506;-75
2021/12/25 00:16:54;;;;;;;111.10;39.85;;;;;;;5.77;100.00;100396.66;5181356;28;20033;-75
2021/12/25 00:19:24;;;;;;;110.38;40.88;;;;;;;5.77;100.00;100383.34;5181139;28;20033;-75
2021/12/25 00:21:56;;;;;;;115.25;39.90;;;;;;;5.77;100.00;100374.53;5181755;28;20033;-75
2021/12/25 00:24:26;;;;;;;129.18;41.22;;;;;;;5.76;100.00;100380.84;5163218;28;20018;-74
2021/12/25 00:27:06;;;;;;;117.93;41.67;;;;;;;5.75;100.00;100372.03;5180947;28;20409;-75
2021/12/25 00:29:53;;;;;;;121.45;41.13;;;;;;;5.76;100.00;100376.34;5180950;28;20033;-75
2021/12/25 00:34:54;;;;;;;142.60;48.95;;;;;;;5.79;100.00;100372.56;5180404;28;20026;-75
2021/12/25 00:37:26;;;;;;;135.88;44.55;;;;;;;5.79;100.00;100368.09;5180673;28;20084;-75
2021/12/25 00:39:56;;;;;;;142.27;46.47;;;;;;;5.78;100.00;100369.06;5180946;28;20029;-76
2021/12/25 00:42:27;;;;;;;127.30;44.65;;;;;;;5.79;100.00;100365.44;5180720;28;20029;-76
2021/12/25 00:44:57;;;;;;;154.13;49.58;;;;;;;5.81;100.00;100373.25;5180527;28;20385;-75
2021/12/25 00:47:28;;;;;;;158.27;48.22;;;;;;;5.83;100.00;100363.31;5179063;28;20517;-75
2021/12/25 00:49:58;;;;;;;158.27;49.75;;;;;;;5.83;100.00;100366.81;5180909;28;20386;-76
2021/12/25 00:52:29;;;;;;;160.57;49.60;;;;;;;5.86;100.00;100363.00;5180643;28;20112;-75
2021/12/25 00:55:01;;;;;;;161.75;49.65;;;;;;;5.85;100.00;100359.50;5180047;28;20072;-76
2021/12/25 00:57:31;;;;;;;147.20;48.38;;;;;;;5.88;100.00;100363.72;5162955;28;20051;-76
2021/12/25 01:00:09;;;;;;;173.48;51.70;;;;;;;5.90;100.00;100359.06;5162452;28;20032;-75
2021/12/25 01:02:42;;;;;;;174.15;52.35;;;;;;;5.88;100.00;100369.88;5162779;28;20022;-75
2021/12/25 01:05:16;;;;;;;173.10;52.35;;;;;;;5.90;100.00;100365.22;5180237;28;20022;-76
2021/12/25 01:07:46;;;;;;;196.20;55.60;;;;;;;5.91;100.00;100372.25;5180457;28;20038;-76
2021/12/25 01:10:20;;;;;;;173.18;52.75;;;;;;;5.93;100.00;100370.31;5180148;28;20389;-75
2021/12/25 01:13:02;;;;;;;175.23;52.08;;;;;;;5.97;100.00;100366.38;5180379;28;20426;-76
2021/12/25 01:15:49;;;;;;;181.38;54.25;;;;;;;6.01;100.00;100368.72;5162321;28;20509;-75
2021/12/25 01:32:06;;;;;;;173.77;53.05;;;;;;;6.10;100.00;100365.16;5175080;28;20026;-75
2021/12/25 01:40:16;;;;;;;186.40;51.20;;;;;;;6.15;100.00;100357.56;5180276;28;20359;-76
2021/12/25 01:48:27;;;;;;;172.43;50.38;;;;;;;6.15;100.00;100347.75;5173673;28;20076;-76
2021/12/25 01:50:57;;;;;;;177.52;51.33;;;;;;;6.15;100.00;100346.91;5179815;28;20029;-76
2021/12/25 01:53:28;;;;;;;183.30;52.42;;;;;;;6.16;100.00;100349.41;5180189;28;20049;-75
2021/12/25 01:55:59;;;;;;;198.05;54.80;;;;;;;6.16;100.00;100352.06;5179533;28;20081;-76
2021/12/25 01:58:31;;;;;;;176.27;49.75;;;;;;;6.16;100.00;100346.75;5161826;28;20080;-75
2021/12/25 02:01:04;;;;;;;198.85;54.17;;;;;;;6.18;100.00;100357.28;5169213;28;20025;-75
2021/12/25 02:03:36;;;;;;;201.98;53.35;;;;;;;6.18;100.00;100347.44;5182627;28;20018;-76
2021/12/25 02:06:09;;;;;;;190.20;51.88;;;;;;;6.20;100.00;100355.28;5184052;28;20510;-75
2021/12/25 02:08:42;;;;;;;186.98;51.78;;;;;;;6.19;100.00;100357.13;5183920;28;20045;-76
2021/12/25 02:11:13;;;;;;;160.73;48.33;;;;;;;6.19;100.00;100348.28;5184073;28;20025;-76
2021/12/25 02:13:46;;;;;;;154.80;47.10;;;;;;;6.21;100.00;100351.63;5184314;28;20048;-75
2021/12/25 02:16:19;;;;;;;175.73;48.15;;;;;;;6.22;100.00;100354.16;5165838;28;20513;-75
2021/12/25 02:19:06;;;;;;;147.25;42.67;;;;;;;6.22;100.00;100350.63;5166229;28;20032;-75
2021/12/25 02:21:39;;;;;;;125.90;38.13;;;;;;;6.21;100.00;100347.13;5166163;28;20080;-75
2021/12/25 02:24:12;;;;;;;100.68;34.85;;;;;;;6.22;100.00;100354.16;5166056;28;20501;-75
2021/12/25 02:26:44;;;;;;;80.70;27.45;;;;;;;6.19;100.00;100345.63;5183848;28;20114;-74
2021/12/25 02:29:15;;;;;;;66.82;21.50;;;;;;;6.18;100.00;100341.28;5183429;28;20029;-75
2021/12/25 02:31:45;;;;;;;61.42;21.08;;;;;;;6.15;100.00;100346.91;5182710;28;20022;-76
2021/12/25 02:34:16;;;;;;;62.92;20.02;;;;;;;6.10;100.00;100349.19;5179985;28;20379;-75
2021/12/25 02:36:46;;;;;;;49.55;18.15;;;;;;;6.09;100.00;100342.19;5166078;28;20018;-76
2021/12/25 02:39:17;;;;;;;56.17;18.40;;;;;;;6.07;100.00;100339.66;5165905;28;20037;-76
2021/12/25 02:42:06;;;;;;;47.03;16.75;;;;;;;6.05;100.00;100336.31;5168342;28;20026;-76
2021/12/25 02:44:47;;;;;;;40.28;14.82;;;;;;;6.02;100.00;100351.72;5183030;28;20037;-76
2021/12/25 02:47:23;;;;;;;43.83;15.05;;;;;;;5.96;100.00;100343.34;5166799;28;20025;-76
2021/12/25 02:49:54;;;;;;;38.85;14.65;;;;;;;5.93;100.00;100342.84;5183230;28;20259;-76
2021/12/25 02:52:28;;;;;;;43.67;15.10;;;;;;;5.90;100.00;100346.59;5165644;28;20026;-75
2021/12/25 02:54:59;;;;;;;46.50;15.50;;;;;;;5.87;100.00;100341.59;5182545;28;20029;-76
2021/12/25 02:57:31;;;;;;;45.03;15.73;;;;;;;5.81;100.00;100339.47;5182934;28;20033;-75
2021/12/25 03:00:07;;;;;;;51.88;17.85;;;;;;;5.77;100.00;100338.09;5181698;28;20477;-75
2021/12/25 03:02:38;;;;;;;56.40;18.50;;;;;;;5.70;100.00;100343.19;5160117;28;20048;-76
2021/12/25 03:05:09;;;;;;;67.63;21.92;;;;;;;5.65;100.00;100347.28;5182549;28;20046;-76
2021/12/25 03:07:40;;;;;;;65.72;22.73;;;;;;;5.58;100.00;100344.38;5165202;28;20040;-76
2021/12/25 03:10:13;;;;;;;76.07;23.30;;;;;;;5.52;100.00;100342.25;5182891;28;20022;-76
2021/12/25 03:12:50;;;;;;;59.45;21.63;;;;;;;5.49;100.00;100339.09;5182297;28;20061;-76
2021/12/25 03:18:26;;;;;;;69.65;23.25;;;;;;;5.46;100.00;100346.34;5179730;28;20037;-76
2021/12/25 03:21:02;;;;;;;69.57;22.17;;;;;;;5.48;100.00;100342.72;5182559;28;20029;-75
2021/12/25 03:23:36;;;;;;;60.33;22.42;;;;;;;5.47;100.00;100339.22;5165436;28;20045;-76
2021/12/25 03:26:07;;;;;;;70.07;21.65;;;;;;;5.45;100.00;100339.38;5181787;28;20022;-76
2021/12/25 03:28:42;;;;;;;68.03;24.20;;;;;;;5.40;100.00;100341.63;5182298;28;20439;-76
2021/12/25 03:31:17;;;;;;;65.32;22.92;;;;;;;5.36;100.00;100344.72;5182335;28;20479;-75
2021/12/25 03:33:52;;;;;;;73.80;23.13;;;;;;;5.32;100.00;100345.97;5181176;28;20113;-76
2021/12/25 03:36:23;;;;;;;74.65;23.58;;;;;;;5.30;100.00;100345.28;5163691;28;20036;-75
2021/12/25 03:38:54;;;;;;;72.57;23.08;;;;;;;5.27;100.00;100346.44;5182159;28;20398;-76
2021/12/25 03:41:25;;;;;;;70.63;22.17;;;;;;;5.27;100.00;100356.22;5182659;28;20045;-76
2021/12/25 03:43:57;;;;;;;75.90;23.88;;;;;;;5.22;100.00;100359.34;5182028;28;20060;-76
2021/12/25 03:46:29;;;;;;;70.47;22.98;;;;;;;5.22;100.00;100359.34;5164643;28;20072;-76
2021/12/25 03:49:06;;;;;;;73.65;23.02;;;;;;;5.22;100.00;100355.81;5181921;28;20120;-76
2021/12/25 04:00:07;;;;;;;80.30;23.45;;;;;;;5.12;100.00;100364.66;5181517;28;20026;-76
2021/12/25 04:02:50;;;;;;;81.10;24.15;;;;;;;5.09;100.00;100358.78;5171118;28;20041;-76
2021/12/25 04:05:26;;;;;;;77.50;23.75;;;;;;;5.10;100.00;100363.13;5181471;28;20026;-76
2021/12/25 04:08:09;;;;;;;68.65;23.15;;;;;;;5.10;100.00;100365.78;5181676;28;20106;-76
2021/12/25 04:10:43;;;;;;;72.13;24.23;;;;;;;5.06;100.00;100359.91;5180913;28;20076;-75
2021/12/25 04:13:15;;;;;;;71.53;23.75;;;;;;;5.04;100.00;100361.88;5164396;28;20116;-78
2021/12/25 04:15:47;;;;;;;77.55;24.20;;;;;;;5.00;100.00;100357.81;5181072;28;20022;-78
2021/12/25 04:18:17;;;;;;;75.47;25.20;;;;;;;5.03;100.00;100360.19;5181574;28;20053;-79
2021/12/25 04:20:48;;;;;;;83.05;26.17;;;;;;;5.01;100.00;100362.13;5163850;28;20513;-78
2021/12/25 04:23:26;;;;;;;82.20;26.42;;;;;;;4.97;100.00;100363.44;5181499;28;20101;-78
2021/12/25 04:25:58;;;;;;;78.53;25.02;;;;;;;4.94;100.00;100369.03;5180767;28;20021;-78
2021/12/25 04:48:30;;;;;;;77.38;27.25;;;;;;;4.86;100.00;100387.47;5181211;28;20080;-78
2021/12/25 05:01:54;;;;;;;90.88;29.90;;;;;;;4.74;100.00;100404.56;5177820;28;20423;-79
2021/12/25 05:04:31;;;;;;;84.20;25.42;;;;;;;4.73;100.00;100401.06;5162271;28;20083;-78
2021/12/25 05:07:02;;;;;;;89.15;27.63;;;;;;;4.74;100.00;100397.44;5162997;28;20121;-78
2021/12/25 05:09:32;;;;;;;83.20;26.70;;;;;;;4.78;100.00;100409.47;5180830;28;20125;-80
2021/12/25 05:12:03;;;;;;;85.00;26.90;;;;;;;4.73;100.00;100406.38;5179950;28;20168;-79
2021/12/25 05:14:34;;;;;;;76.03;26.10;;;;;;;4.70;100.00;100409.31;5180495;28;20026;-78
2021/12/25 05:17:06;;;;;;;82.38;26.52;;;;;;;4.71;100.00;100410.13;5180427;28;20026;-79
2021/12/25 05:19:37;;;;;;;76.60;26.27;;;;;;;4.57;100.00;100420.22;5162925;28;20107;-78
2021/12/25 05:22:07;;;;;;;69.25;25.35;;;;;;;4.52;100.00;100424.25;5180560;28;20025;-78
2021/12/25 05:24:38;;;;;;;64.18;23.30;;;;;;;4.49;100.00;100421.88;5179932;28;20022;-78
2021/12/25 05:27:09;;;;;;;75.65;25.20;;;;;;;4.49;100.00;100419.22;5180425;28;20099;-78
2021/12/25 05:29:45;;;;;;;79.43;24.52;;;;;;;4.50;100.00;100426.22;5180561;28;20042;-79
2021/12/25 05:32:18;;;;;;;73.85;24.20;;;;;;;4.47;100.00;100427.34;5180513;28;20105;-78
2021/12/25 05:34:49;;;;;;;74.88;23.95;;;;;;;4.49;100.00;100427.19;5168555;28;20037;-78
2021/12/25 05:37:19;;;;;;;89.38;27.17;;;;;;;4.50;100.00;100437.66;5178108;28;20041;-74
2021/12/25 05:39:51;;;;;;;74.50;25.00;;;;;;;4.45;100.00;100439.91;5180400;28;20045;-76
2021/12/25 05:42:23;;;;;;;64.18;23.10;;;;;;;4.41;100.00;100436.66;5180209;28;20026;-74
2021/12/25 05:44:53;;;;;;;67.18;23.13;;;;;;;4.41;100.00;100447.28;5180089;28;20029;-76
2021/12/25 05:47:24;;;;;;;75.80;24.33;;;;;;;4.42;100.00;100453.47;5179843;28;20394;-74
2021/12/25 05:49:54;;;;;;;66.97;20.85;;;;;;;4.37;100.00;100450.38;5180222;28;20033;-76
2021/12/25 05:52:25;;;;;;;52.83;18.85;;;;;;;4.31;100.00;100459.69;5180170;28;20041;-76
2021/12/25 05:54:56;;;;;;;50.83;18.25;;;;;;;4.24;100.00;100453.25;5179888;28;20490;-75
2021/12/25 05:57:26;;;;;;;49.15;17.48;;;;;;;4.25;100.00;100460.25;5179874;28;20029;-76
2021/12/25 05:59:57;;;;;;;51.33;19.02;;;;;;;4.25;100.00;100457.59;5179664;28;20094;-74
2021/12/25 06:02:27;;;;;;;45.88;16.80;;;;;;;4.09;100.00;100465.22;5180220;28;20053;-76
2021/12/25 06:05:00;;;;;;;40.28;14.68;;;;;;;4.00;100.00;100466.84;5149379;28;20018;-75
2021/12/25 06:07:31;;;;;;;43.50;17.13;;;;;;;3.96;100.00;100470.75;5162039;28;20034;-75
2021/12/25 06:10:06;;;;;;;45.83;16.52;;;;;;;3.98;100.00;100468.81;5179728;28;20084;-74
2021/12/25 06:12:37;;;;;;;41.97;16.05;;;;;;;3.90;100.00;100466.81;5161936;28;20414;-75
2021/12/25 06:15:10;;;;;;;43.40;15.15;;;;;;;3.90;100.00;100473.94;5179650;28;20113;-74
2021/12/25 06:17:41;;;;;;;42.95;16.38;;;;;;;3.85;100.00;100473.50;5179725;28;20026;-75
2021/12/25 06:20:12;;;;;;;45.33;16.40;;;;;;;3.78;100.00;100488.28;5179808;28;20037;-75
2021/12/25 06:22:43;;;;;;;46.33;16.10;;;;;;;3.74;100.00;100481.53;5162370;28;20061;-76
2021/12/25 06:25:13;;;;;;;42.55;15.15;;;;;;;3.60;100.00;100480.06;5179448;28;20546;-76
2021/12/25 06:27:44;;;;;;;45.33;17.23;;;;;;;3.52;100.00;100487.84;5162393;28;20029;-75
2021/12/25 06:30:15;;;;;;;51.25;17.33;;;;;;;3.41;100.00;100493.19;5162149;28;20033;-74
2021/12/25 06:32:45;;;;;;;45.08;17.05;;;;;;;3.43;100.00;100489.44;5180034;28;20026;-75
2021/12/25 06:35:16;;;;;;;52.63;18.40;;;;;;;3.43;100.00;100486.81;5173419;28;20471;-74
2021/12/25 06:37:47;;;;;;;47.90;16.83;;;;;;;3.40;100.00;100495.00;5162082;28;20077;-74
2021/12/25 06:40:19;;;;;;;49.25;17.13;;;;;;;3.35;100.00;100502.50;5179856;28;20038;-75
2021/12/25 06:42:49;;;;;;;53.53;17.23;;;;;;;3.41;100.00;100503.78;5162199;28;20065;-75
2021/12/25 06:45:20;;;;;;;50.97;17.40;;;;;;;3.34;100.00;100504.31;5179387;28;20049;-74
2021/12/25 06:47:51;;;;;;;49.65;16.65;;;;;;;3.29;100.00;100509.16;5180310;28;20022;-75
2021/12/25 06:50:23;;;;;;;38.53;14.05;;;;;;;3.18;100.00;100508.38;5183278;28;20401;-73
2021/12/25 06:52:54;;;;;;;43.38;15.27;;;;;;;3.10;100.00;100509.84;5183222;28;20068;-73
2021/12/25 06:55:24;;;;;;;39.95;14.63;;;;;;;3.02;100.00;100507.00;5182577;28;20104;-75
2021/12/25 06:57:57;;;;;;;39.15;14.73;;;;;;;2.97;100.00;100524.25;5182911;28;20113;-74
2021/12/25 07:00:27;;;;;;;43.03;14.75;;;;;;;2.91;100.00;100522.06;5182724;28;20029;-73
2021/12/25 07:02:58;;;;;;;39.53;15.68;;;;;;;2.87;100.00;100531.25;5162898;28;20033;-73
2021/12/25 07:05:29;;;;;;;44.88;17.55;;;;;;;2.85;100.00;100540.16;5177404;28;20025;-74
2021/12/25 07:08:00;;;;;;;43.75;17.10;;;;;;;2.85;100.00;100537.50;5182562;28;20033;-73
2021/12/25 07:10:30;;;;;;;53.08;17.00;;;;;;;2.88;100.00;100546.19;5182738;28;20079;-74
2021/12/25 07:13:01;;;;;;;43.22;17.02;;;;;;;2.84;100.00;100540.28;5182528;28;20445;-73
2021/12/25 07:15:32;;;;;;;45.72;17.00;;;;;;;2.82;100.00;100545.72;5164933;28;20108;-74
2021/12/25 07:18:02;;;;;;;50.83;19.40;;;;;;;2.84;100.00;100548.22;5182819;28;20022;-74
2021/12/25 07:20:33;;;;;;;50.88;18.85;;;;;;;2.82;100.00;100551.00;5182673;28;20556;-74
2021/12/25 07:23:03;;;;;;;51.78;20.80;;;;;;;2.78;100.00;100557.50;5183216;28;20040;-74
2021/12/25 07:25:34;;;;;;;59.92;22.17;;;;;;;2.74;100.00;100561.38;5182287;28;20061;-72
2021/12/25 07:28:04;;;;;;;63.55;22.95;;;;;;;2.67;100.00;100554.06;5182518;28;20390;-74
2021/12/25 07:30:35;;;;;;;61.85;23.55;;;;;;;2.66;100.00;100560.28;5182611;28;20034;-74
2021/12/25 07:33:06;;;;;;;60.60;23.23;;;;;;;2.50;100.00;100558.84;5182419;28;20049;-74
2021/12/25 07:35:36;;;;;;;61.30;23.63;;;;;;;2.53;100.00;100569.22;5182068;28;20113;-73
2021/12/25 07:38:07;;;;;;;61.17;24.08;;;;;;;2.52;100.00;100562.25;5172675;28;20406;-74
2021/12/25 07:40:38;;;;;;;67.53;25.35;;;;;;;2.52;100.00;100569.34;5182126;28;20026;-73
2021/12/25 07:43:09;;;;;;;69.15;25.38;;;;;;;2.44;100.00;100571.75;5182275;28;20148;-74
2021/12/25 07:45:40;;;;;;;63.08;24.63;;;;;;;2.44;100.00;100575.25;5181943;28;20041;-74
2021/12/25 07:48:10;;;;;;;66.88;23.83;;;;;;;2.39;100.00;100566.81;5164643;28;20025;-74
2021/12/25 07:50:41;;;;;;;75.97;27.52;;;;;;;2.41;100.00;100579.91;5164459;28;20034;-73
2021/12/25 07:53:11;;;;;;;63.17;23.98;;;;;;;2.36;100.00;100580.31;5172885;28;20108;-75
2021/12/25 07:55:43;;;;;;;63.28;23.05;;;;;;;2.34;100.00;100585.72;5183186;28;20026;-73
2021/12/25 07:58:15;;;;;;;64.93;24.38;;;;;;;2.32;100.00;100582.34;5183431;28;20414;-74
2021/12/25 08:00:46;;;;;;;63.00;24.88;;;;;;;2.38;100.00;100583.66;5161264;28;20238;-74
2021/12/25 08:03:17;;;;;;;61.22;23.38;;;;;;;2.33;100.00;100591.97;5180214;28;20030;-73
2021/12/25 08:05:48;;;;;;;67.15;24.83;;;;;;;2.30;100.00;100600.13;5180211;28;20048;-74
2021/12/25 08:08:18;;;;;;;64.00;22.65;;;;;;;2.27;100.00;100594.25;5179472;28;20434;-73
2021/12/25 08:10:49;;;;;;;64.43;24.25;;;;;;;2.27;100.00;100603.03;5179633;28;20017;-73
2021/12/25 08:13:19;;;;;;;56.05;23.15;;;;;;;2.22;100.00;100601.72;5161462;28;20165;-72
2021/12/25 08:15:50;;;;;;;56.40;22.73;;;;;;;2.18;100.00;100601.09;5179412;28;20097;-73
2021/12/25 08:18:21;;;;;;;53.65;22.05;;;;;;;2.22;100.00;100602.56;5179111;28;20377;-73
2021/12/25 08:20:52;;;;;;;48.60;19.88;;;;;;;2.13;100.00;100605.91;5179810;28;20068;-73
2021/12/25 08:23:22;;;;;;;52.63;20.42;;;;;;;2.13;100.00;100613.00;5162223;28;20486;-73
2021/12/25 08:25:52;;;;;;;51.10;20.98;;;;;;;2.11;100.00;100629.00;5161141;28;20034;-73
2021/12/25 08:28:23;;;;;;;43.47;18.33;;;;;;;2.12;100.00;100635.16;5179313;28;20022;-73
2021/12/25 08:30:54;;;;;;;51.35;21.25;;;;;;;2.10;100.00;100629.09;5179448;28;20117;-73
2021/12/25 08:33:24;;;;;;;51.83;21.38;;;;;;;2.08;100.00;100635.38;5179279;28;20026;-74
2021/12/25 08:35:55;;;;;;;52.40;20.15;;;;;;;2.11;100.00;100629.00;5178604;28;20025;-75
2021/12/25 08:38:25;;;;;;;49.80;21.05;;;;;;;2.10;100.00;100635.25;5173087;28;20602;-75
2021/12/25 08:40:56;;;;;;;57.40;21.88;;;;;;;2.08;100.00;100634.53;5161339;28;20112;-74
2021/12/25 08:43:33;;;;;;;56.05;22.05;;;;;;;2.01;100.00;100642.09;5178844;28;20445;-75
2021/12/25 08:46:13;;;;;;;54.83;21.63;;;;;;;1.93;100.00;100644.47;5162047;28;20406;-74
2021/12/25 08:48:44;;;;;;;52.50;20.83;;;;;;;1.90;100.00;100659.72;5178001;28;20049;-74
2021/12/25 08:51:14;;;;;;;52.42;21.73;;;;;;;1.89;100.00;100658.03;5161960;28;20038;-75
2021/12/25 08:53:45;;;;;;;55.90;22.67;;;;;;;1.86;100.00;100668.84;5178802;28;20509;-75
2021/12/25 08:56:15;;;;;;;57.38;22.38;;;;;;;1.76;100.00;100674.00;5178795;28;20474;-75
2021/12/25 08:58:45;;;;;;;56.05;21.73;;;;;;;1.73;100.00;100682.16;5179182;28;20026;-75
2021/12/25 09:01:16;;;;;;;58.63;22.80;;;;;;;1.69;100.00;100678.88;5178226;28;20025;-74
2021/12/25 09:03:47;;;;;;;68.45;24.13;;;;;;;1.77;100.00;100689.75;5178598;28;20045;-74
2021/12/25 09:06:17;;;;;;;71.93;24.92;;;;;;;1.77;100.00;100681.81;5168018;28;20109;-74
2021/12/25 09:08:48;;;;;;;63.55;23.13;;;;;;;1.70;100.00;100691.13;5178451;28;20050;-74
2021/12/25 09:11:20;;;;;;;61.30;23.10;;;;;;;1.66;100.00;100684.41;5178569;28;20026;-75
2021/12/25 09:13:51;;;;;;;62.33;24.38;;;;;;;1.66;100.00;100700.28;5177780;28;20034;-74
2021/12/25 09:16:22;;;;;;;63.38;24.20;;;;;;;1.70;100.00;100701.72;5177883;28;20022;-74
2021/12/25 09:18:53;;;;;;;61.38;22.80;;;;;;;1.68;100.00;100698.34;5178189;28;20036;-74
2021/12/25 09:21:23;;;;;;;66.40;25.70;;;;;;;1.65;100.00;100703.00;5178333;28;20029;-74
2021/12/25 09:23:54;;;;;;;70.72;24.88;;;;;;;1.62;100.00;100697.97;5178373;28;20026;-74
2021/12/25 09:26:25;;;;;;;68.68;25.15;;;;;;;1.63;100.00;100700.50;5177106;28;20036;-74
2021/12/25 09:28:55;;;;;;;74.97;26.50;;;;;;;1.62;100.00;100704.09;5178051;28;20025;-75
2021/12/25 09:31:26;;;;;;;66.82;26.88;;;;;;;1.65;100.00;100708.31;5189102;28;20149;-75
2021/12/25 09:33:57;;;;;;;66.75;25.92;;;;;;;1.61;100.00;100714.75;5177744;28;20029;-75
2021/12/25 09:36:29;;;;;;;64.78;24.40;;;;;;;1.62;100.00;100709.38;5177979;28;20296;-74
2021/12/25 09:38:59;;;;;;;62.00;23.77;;;;;;;1.54;100.00;100717.88;5166387;28;20175;-74
2021/12/25 09:41:32;;;;;;;62.33;23.75;;;;;;;1.55;100.00;100708.13;5178428;28;20037;-74
2021/12/25 09:44:04;;;;;;;61.03;22.67;;;;;;;1.53;100.00;100710.06;5182427;28;20018;-74
2021/12/25 09:46:35;;;;;;;63.03;23.27;;;;;;;1.58;100.00;100717.66;5196350;28;20477;-73
2021/12/25 09:49:06;;;;;;;62.53;24.45;;;;;;;1.58;100.00;100718.50;5161341;28;20020;-74
2021/12/25 09:51:36;;;;;;;63.58;24.20;;;;;;;1.54;100.00;100723.16;5179698;28;20040;-74
2021/12/25 09:54:11;;;;;;;60.03;23.17;;;;;;;1.56;100.00;100723.06;5177402;28;20022;-75
2021/12/25 09:56:43;;;;;;;63.05;24.02;;;;;;;1.59;100.00;100724.63;5177334;28;20037;-74
2021/12/25 09:59:14;;;;;;;67.75;25.17;;;;;;;1.64;100.00;100725.13;5177631;28;20087;-74
2021/12/25 10:01:49;;;;;;;68.15;24.05;;;;;;;1.63;100.00;100721.66;5177489;28;20109;-74
2021/12/25 10:04:39;;;;;;;65.50;24.60;;;;;;;1.61;100.00;100722.69;5177156;28;20033;-74
2021/12/25 10:07:40;;;;;;;68.80;25.67;;;;;;;1.56;100.00;100728.34;5168255;28;20483;-73
2021/12/25 10:10:15;;;;;;;62.15;23.63;;;;;;;1.53;100.00;100717.97;5177146;28;20304;-73
2021/12/25 10:12:49;;;;;;;66.53;24.77;;;;;;;1.51;100.00;100718.09;5169055;28;20510;-74
2021/12/25 10:15:23;;;;;;;61.38;24.50;;;;;;;1.60;100.00;100718.38;5177193;28;20259;-73
2021/12/25 10:17:57;;;;;;;66.85;25.08;;;;;;;1.55;100.00;100724.84;5178124;28;20030;-74
2021/12/25 10:20:31;;;;;;;68.50;26.63;;;;;;;1.63;100.00;100721.66;5177019;28;20022;-74
2021/12/25 10:23:25;;;;;;;61.33;25.17;;;;;;;1.57;100.00;100721.25;5180021;28;20601;-73
2021/12/25 10:25:59;;;;;;;66.68;24.67;;;;;;;1.52;100.00;100711.00;5163811;28;20112;-74
2021/12/25 10:28:33;;;;;;;58.58;23.20;;;;;;;1.48;100.00;100713.03;5181516;28;20395;-74
2021/12/25 10:31:08;;;;;;;58.60;22.52;;;;;;;1.46;100.00;100711.47;5181103;28;20030;-74
2021/12/25 10:33:44;;;;;;;64.85;24.85;;;;;;;1.40;100.00;100709.25;5181457;28;20521;-74
2021/12/25 10:36:35;;;;;;;65.90;25.35;;;;;;;1.38;100.00;100700.59;5180804;28;20018;-73
2021/12/25 10:39:10;;;;;;;64.45;23.45;;;;;;;1.47;100.00;100710.50;5175370;28;20038;-74
2021/12/25 10:41:52;;;;;;;58.20;23.65;;;;;;;1.50;100.00;100707.63;5178948;28;20033;-75
2021/12/25 10:44:27;;;;;;;62.95;25.17;;;;;;;1.54;100.00;100709.09;5180792;28;20018;-77
2021/12/25 10:47:01;;;;;;;64.60;25.77;;;;;;;1.52;100.00;100725.06;5181219;28;20039;-74
2021/12/25 10:49:38;;;;;;;62.15;25.45;;;;;;;1.52;100.00;100726.88;5181543;28;20317;-76
2021/12/25 10:52:12;;;;;;;65.22;25.80;;;;;;;1.54;100.00;100720.50;5181243;28;20026;-76
2021/12/25 10:54:49;;;;;;;69.90;27.15;;;;;;;1.55;100.00;100710.78;5180324;28;20053;-76
2021/12/25 10:57:49;;;;;;;74.07;27.67;;;;;;;1.50;100.00;100712.91;5180809;28;20117;-76
2021/12/25 11:00:19;;;;;;;77.70;29.25;;;;;;;1.37;100.00;100717.41;5180453;28;20030;-76
2021/12/25 11:03:09;;;;;;;65.82;27.75;;;;;;;1.34;100.00;100718.47;5180752;28;20429;-76
2021/12/25 11:06:01;;;;;;;70.68;28.52;;;;;;;1.26;100.00;100712.91;5180202;28;20022;-76
2021/12/25 11:08:33;;;;;;;67.35;26.65;;;;;;;1.16;100.00;100715.34;5176631;28;20080;-76
2021/12/25 11:11:08;;;;;;;75.38;28.08;;;;;;;1.14;100.00;100716.41;5162874;28;20482;-76
2021/12/25 11:13:42;;;;;;;70.80;27.48;;;;;;;1.18;100.00;100700.22;5180788;28;20414;-76
2021/12/25 11:16:15;;;;;;;72.05;28.63;;;;;;;1.14;100.00;100687.34;5180316;28;20199;-76
2021/12/25 11:19:07;;;;;;;71.25;27.42;;;;;;;1.11;100.00;100693.69;5162279;28;20041;-76
2021/12/25 11:21:57;;;;;;;72.28;29.05;;;;;;;1.21;100.00;100699.16;5180743;28;20038;-76
2021/12/25 11:24:35;;;;;;;83.38;32.42;;;;;;;1.25;100.00;100704.09;5180130;28;20318;-76
2021/12/25 11:27:07;;;;;;;71.57;26.80;;;;;;;1.26;100.00;100697.88;5179694;28;20283;-74
2021/12/25 11:29:38;;;;;;;73.95;27.95;;;;;;;1.33;100.00;100698.28;5180594;28;20080;-74
2021/12/25 11:32:09;;;;;;;73.70;29.23;;;;;;;1.35;100.00;100700.78;5180535;28;20419;-74
2021/12/25 11:34:40;;;;;;;73.15;27.88;;;;;;;1.36;100.00;100705.16;5171561;28;20022;-74
2021/12/25 11:37:13;;;;;;;79.15;30.65;;;;;;;1.40;100.00;100688.94;5189913;28;20101;-74
2021/12/25 11:39:51;;;;;;;82.47;31.27;;;;;;;1.46;100.00;100696.44;5186458;28;20056;-74
2021/12/25 11:42:24;;;;;;;81.68;32.42;;;;;;;1.37;100.00;100698.91;5155612;28;20490;-74
2021/12/25 11:44:55;;;;;;;80.28;31.52;;;;;;;1.46;100.00;100708.81;5179736;28;20030;-74
2021/12/25 11:47:45;;;;;;;78.97;29.70;;;;;;;1.42;100.00;100710.00;5179466;28;20495;-74
2021/12/25 11:50:21;;;;;;;74.55;29.20;;;;;;;1.47;100.00;100718.44;5161779;28;20036;-74
2021/12/25 11:53:27;;;;;;;70.88;29.25;;;;;;;1.56;100.00;100709.84;5180105;28;20084;-73
2021/12/25 11:58:50;;;;;;;70.45;29.35;;;;;;;1.58;100.00;100715.84;5179705;28;20375;-74
2021/12/25 12:01:48;;;;;;;68.38;28.38;;;;;;;1.62;100.00;100716.47;5179981;28;20025;-74
2021/12/25 12:04:21;;;;;;;76.03;30.23;;;;;;;1.46;100.00;100719.41;5179187;28;20078;-74
2021/12/25 12:06:58;;;;;;;72.78;28.85;;;;;;;1.43;100.00;100720.44;5178723;28;20041;-74
2021/12/25 12:09:32;;;;;;;77.18;30.50;;;;;;;1.44;100.00;100714.19;5158459;28;20072;-73
2021/12/25 12:12:03;;;;;;;75.78;30.88;;;;;;;1.39;100.00;100718.13;5179371;28;20026;-74
2021/12/25 12:14:33;;;;;;;74.28;29.70;;;;;;;1.29;100.00;100713.50;5190091;28;20040;-74
2021/12/25 12:17:06;;;;;;;70.05;29.38;;;;;;;1.38;100.00;100711.16;5181711;28;20033;-75
2021/12/25 12:19:39;;;;;;;82.50;31.98;;;;;;;1.33;100.00;100714.13;5180721;28;20056;-74
2021/12/25 12:25:21;;;;;;;76.55;31.35;;;;;;;1.20;100.00;100716.78;5180014;28;20072;-73
2021/12/25 12:27:55;;;;;;;67.75;28.63;;;;;;;1.20;100.00;100719.44;5163111;28;20390;-73
2021/12/25 12:30:35;;;;;;;81.07;30.95;;;;;;;1.19;100.00;100723.03;5180587;28;20091;-73
2021/12/25 12:33:15;;;;;;;73.57;30.15;;;;;;;1.15;100.00;100721.56;5189955;28;20119;-73
2021/12/25 12:36:06;;;;;;;72.57;29.00;;;;;;;1.15;100.00;100726.00;5170773;28;20381;-73
2021/12/25 12:41:34;;;;;;;79.20;30.80;;;;;;;1.09;100.00;100716.72;5177142;28;20485;-74
2021/12/25 12:44:27;;;;;;;75.95;29.75;;;;;;;1.12;100.00;100710.38;5176477;28;20333;-73
2021/12/25 12:47:02;;;;;;;76.47;28.92;;;;;;;1.10;100.00;100715.75;5175745;28;20026;-73
2021/12/25 12:49:53;;;;;;;75.30;28.55;;;;;;;1.16;100.00;100718.00;5175963;28;20029;-75
2021/12/25 12:52:44;;;;;;;75.18;29.75;;;;;;;1.14;100.00;100711.94;5158036;28;20025;-75
2021/12/25 12:55:27;;;;;;;75.65;29.70;;;;;;;1.21;100.00;100717.66;5176005;28;20362;-75